Flight Track Log - Related Links

Times and Time Zones

All times are in EDT time to prevent confusion due to time zone crossing. See the EGF2566 flight status page for this flight to view local times or setup timezone preferences in your user account.

Time Position Orientation Groundspeed Altitude Reporting Facility
EDT Latitude Longitude Course Direction KTS MPH feet Rate Location/Type
Fri 08:05:00 PM 30.6675 -91.4605 297° West  Level Estimated
Fri 08:06:00 PM 30.7010 -91.5383 297° West  Level Estimated
Fri 08:07:00 PM 30.7345 -91.6161 297° West  Level Estimated
Fri 08:08:00 PM 30.7679 -91.6940 297° West  Level Estimated
Fri 08:09:00 PM 30.8013 -91.7720 297° West  Level Estimated
Fri 08:10:00 PM 30.8346 -91.8500 296° West  Level Estimated
Fri 08:11:00 PM 30.8679 -91.9280 296° West  Level Estimated
Fri 08:12:00 PM 30.9011 -92.0062 296° West  Level Estimated
Fri 08:13:00 PM 30.9343 -92.0843 296° West  Level Estimated
Fri 08:14:00 PM 30.9675 -92.1626 296° West  Level Estimated
Fri 08:15:00 PM 31.0006 -92.2408 296° West  Level Estimated
Fri 08:16:00 PM 31.0336 -92.3192 296° West  Level Estimated
Fri 08:17:00 PM 31.0667 -92.3976 296° West  Level Estimated
Fri 08:18:00 PM 31.0996 -92.4760 296° West  Level Estimated
Fri 08:19:00 PM 31.1325 -92.5545 296° West  Level Estimated
Fri 08:20:00 PM 31.1654 -92.6330 296° West  Level Estimated
Fri 08:21:00 PM 31.1982 -92.7116 296° West  Level Estimated
Fri 08:22:00 PM 31.2310 -92.7903 296° West  Level Estimated
Fri 08:23:00 PM 31.2637 -92.8690 296° West  Level Estimated
Fri 08:24:00 PM 31.2964 -92.9478 296° West  Level Estimated
Fri 08:25:00 PM 31.3290 -93.0266 296° West  Level Estimated
Fri 08:26:00 PM 31.3616 -93.1055 296° West  Level Estimated
Fri 08:27:00 PM 31.3941 -93.1844 296° West  Level Estimated
Fri 08:28:00 PM 31.4266 -93.2634 296° West  Level Estimated
Fri 08:29:00 PM 31.4590 -93.3425 296° West  Level Estimated
Fri 08:30:00 PM 31.4914 -93.4215 296° West  Level Estimated
Fri 08:31:00 PM 31.5237 -93.5007 296° West  Level Estimated
Fri 08:32:00 PM 31.5560 -93.5799 296° West  Level Estimated
Fri 08:33:00 PM 31.5882 -93.6592 296° West  Level Estimated
Fri 08:34:00 PM 31.6204 -93.7385 295° West  Level Estimated
Fri 08:35:00 PM 31.6526 -93.8179 295° West  Level Estimated
Fri 08:36:00 PM 31.6847 -93.8973 295° West  Level Estimated
Fri 08:37:00 PM 31.7167 -93.9768 295° West  Level Estimated
Fri 08:38:00 PM 31.7487 -94.0563 295° West  Level Estimated
Fri 08:39:00 PM 31.7806 -94.1359 295° West  Level Estimated
Fri 08:40:00 PM 31.8125 -94.2155 295° West  Level Estimated
Fri 08:41:00 PM 31.8444 -94.2952 295° West  Level Estimated
Fri 08:42:00 PM 31.8762 -94.3750 295° West  Level Estimated
Fri 08:43:00 PM 31.9079 -94.4548 295° West  Level Estimated
Fri 08:44:00 PM 31.9396 -94.5346 295° West  Level Estimated
Fri 08:45:00 PM 31.9712 -94.6146 295° West  Level Estimated
Fri 08:46:00 PM 32.0028 -94.6945 295° West  Level Estimated
Fri 08:47:00 PM 32.0344 -94.7746 295° West  Level Estimated
Fri 08:48:00 PM 32.0658 -94.8546 295° West  Level Estimated
Fri 08:49:00 PM 32.0973 -94.9348 295° West  Level Estimated
Fri 08:50:00 PM 32.1287 -95.0150 295° West  Level Estimated
Fri 08:51:00 PM 32.1600 -95.0952 295° West  Level Estimated
Fri 08:52:00 PM 32.1913 -95.1755 295° West  Level Estimated
Fri 08:53:00 PM 32.2225 -95.2559 295° West  Level Estimated
Fri 08:54:00 PM 32.2537 -95.3363 295° West  Level Estimated
Fri 08:55:00 PM 32.2849 -95.4168 295° West  Level Estimated
Fri 08:56:00 PM 32.3160 -95.4973 295° West  Level Estimated
Fri 08:57:00 PM 32.3470 -95.5779 295° West  Level Estimated
Fri 08:58:00 PM 32.3780 -95.6585 294° West  Level Estimated
Fri 08:59:00 PM 32.4089 -95.7392 294° West  Level Estimated
Fri 09:00:00 PM 32.4398 -95.8200 294° West  Level Estimated
Fri 09:01:00 PM 32.4706 -95.9008 294° West  Level Estimated
Fri 09:02:00 PM 32.5014 -95.9816 294° West  Level Estimated
Fri 09:03:00 PM 32.5321 -96.0626 294° West  Level Estimated
Fri 09:04:00 PM 32.5628 -96.1435 294° West  Level Estimated

Login

Don't have an account? Register now (free) for customized features, flight alerts, and more!